PILOTS ONLINE: 304    ATC ONLINE: 41

KGKY - Arlington Municipal Airport

Location

City Arlington
Country  United States
Latitude 32° 39' 50" N
Longitude 97° 5' 39" W
Elevation 628 ft
Type Small Airport

Runways

16/34 6080 ft / 100 ft

Weather

METAR
2014/07/24 09:53
KGKY 240953Z AUTO 00000KT 10SM CLR 24/19 A3004 RMK AO2 SLP162 T02390189
TAF
2014/07/24 09:03
TAF 
      AMD KGKY 240901Z 2409/2506 12006KT P6SM FEW070 BKN250 
     FM241800 08006KT P6SM SCT060 
     FM250100 15005KT P6SM FEW060

Outbound flights

Inbound flights